»·PEaware :: N513KQ KASE-KRIF

N513KQ :: KASE-KRIF

FLIGHT INFORMATION

Flight Status: Arrived
Operator: Privately registered:
United States
More flights under this callsign
Pilot: Stefan D. (14429)
Aircraft: Unknown
(P28U)
More flights by this aircraft type
Origin: KASE Aspen-Pitkin Co/Sardy
United States
Destination: KRIF Richfield Mun
United States
More flights between these airports :: More routes between these airports
Route: VFR
File this flight plan on PilotEdge
Remarks:
Altitude:
(Current/Filed)
14,500ft
Speed:
(Current/Filed)
170kts
Departed: 20-Mar-18 07:29 AM
Arrived: 20-Mar-18 09:27 AM
Distance/Time
Traveled:
246nm/1:58
Distance/Time
To Go:
Arrived

Flight Plot

Page will automatically refresh every two minutes.

Flight plan parsing failed; only flown route is shown


Map Options




Map Legend


Flown Route
Filed Route
Departure Airport
Arrival Airport
Navaid (VOR, NDB)
Fix

Horizontal Profiles

Position Reports

Time Latitude Longitude Heading Altitude Ground
Speed
20-Mar-18 07:14 39.227016 -106.868284 248 7702ft 0kts
20-Mar-18 07:15 39.227016 -106.868284 248 7702ft 0kts
20-Mar-18 07:16 39.227016 -106.868284 248 7702ft 0kts
20-Mar-18 07:17 39.227016 -106.868284 248 7702ft 0kts
20-Mar-18 07:18 39.227016 -106.868284 248 7702ft 0kts
20-Mar-18 07:19 39.227016 -106.868284 248 7702ft 0kts
20-Mar-18 07:20 39.227016 -106.868284 248 7702ft 0kts
20-Mar-18 07:21 39.227016 -106.868284 248 7702ft 0kts
20-Mar-18 07:22 39.227041 -106.868410 322 7702ft 6kts
20-Mar-18 07:23 39.225835 -106.868819 223 7713ft 9kts
20-Mar-18 07:24 39.223660 -106.867905 161 7732ft 12kts
20-Mar-18 07:25 39.219333 -106.865812 163 7777ft 24kts
20-Mar-18 07:26 39.213418 -106.862969 160 7815ft 22kts
20-Mar-18 07:27 39.212097 -106.863541 332 7821ft 12kts
20-Mar-18 07:28 39.233295 -106.873821 332 8668ft 98kts
20-Mar-18 07:29 39.249977 -106.894087 260 10051ft 85kts
20-Mar-18 07:30 39.247105 -106.922270 263 11262ft 84kts
20-Mar-18 07:31 39.245068 -106.952207 262 12487ft 83kts
20-Mar-18 07:32 39.242903 -106.980702 263 13677ft 78kts
20-Mar-18 07:33 39.240824 -107.007535 264 14794ft 74kts
20-Mar-18 07:34 39.238847 -107.032902 264 15936ft 68kts
20-Mar-18 07:35 39.236974 -107.056566 265 17182ft 64kts
20-Mar-18 07:36 39.234896 -107.086785 266 17494ft 111kts
20-Mar-18 07:37 39.231860 -107.128984 265 17489ft 122kts
20-Mar-18 07:38 39.228458 -107.172682 265 17488ft 123kts
20-Mar-18 07:39 39.225004 -107.216550 265 17488ft 123kts
20-Mar-18 07:40 39.221536 -107.260394 265 17488ft 123kts
20-Mar-18 07:41 39.218053 -107.304199 265 17491ft 123kts
20-Mar-18 07:42 39.214592 -107.347523 265 17501ft 123kts
20-Mar-18 07:43 39.211081 -107.391263 265 17510ft 122kts
20-Mar-18 07:44 39.207554 -107.434989 265 17520ft 122kts
20-Mar-18 07:45 39.204030 -107.478478 265 17529ft 122kts
20-Mar-18 07:46 39.200482 -107.522144 266 17539ft 122kts
20-Mar-18 07:47 39.196973 -107.565617 265 17540ft 122kts
20-Mar-18 07:48 39.193405 -107.609130 265 17540ft 122kts
20-Mar-18 07:49 39.189846 -107.652234 265 17543ft 122kts
20-Mar-18 07:50 39.186311 -107.694937 265 17550ft 123kts
20-Mar-18 07:51 39.182657 -107.738883 265 17551ft 124kts
20-Mar-18 07:52 39.178960 -107.783047 265 17554ft 123kts
20-Mar-18 07:53 39.175269 -107.826935 265 17560ft 123kts
20-Mar-18 07:54 39.171557 -107.870877 265 17566ft 123kts
20-Mar-18 07:55 39.167861 -107.914428 265 17571ft 123kts
20-Mar-18 07:56 39.164747 -107.950966 265 17575ft 123kts
20-Mar-18 07:57 39.160583 -107.999618 265 17581ft 123kts
20-Mar-18 07:58 39.156859 -108.042944 265 17576ft 123kts
20-Mar-18 07:59 39.153703 -108.079502 265 17570ft 123kts
20-Mar-18 08:00 39.149897 -108.123406 265 17563ft 123kts
20-Mar-18 08:01 39.145445 -108.174513 265 17554ft 123kts
20-Mar-18 08:02 39.142245 -108.211092 265 17548ft 123kts
20-Mar-18 08:03 39.138403 -108.254825 265 17543ft 123kts
20-Mar-18 08:04 39.133898 -108.305856 265 17542ft 123kts
20-Mar-18 08:05 39.130667 -108.342295 265 17542ft 123kts
20-Mar-18 08:06 39.126775 -108.386023 265 17541ft 122kts
20-Mar-18 08:07 39.122877 -108.429628 265 17541ft 122kts
20-Mar-18 08:08 39.118967 -108.473190 265 17540ft 122kts
20-Mar-18 08:09 39.115051 -108.516619 265 17540ft 122kts
20-Mar-18 08:10 39.111085 -108.560440 264 17539ft 123kts
20-Mar-18 08:11 39.107094 -108.604352 264 17539ft 123kts
20-Mar-18 08:12 39.103089 -108.648218 264 17539ft 123kts
20-Mar-18 08:13 39.099135 -108.691369 264 17548ft 125kts
20-Mar-18 08:14 39.095040 -108.735912 263 17547ft 125kts
20-Mar-18 08:15 39.090933 -108.780338 264 17547ft 125kts
20-Mar-18 08:16 39.086805 -108.824795 264 17546ft 125kts
20-Mar-18 08:17 39.082647 -108.869374 264 17546ft 125kts
20-Mar-18 08:18 39.078499 -108.913674 264 17545ft 125kts
20-Mar-18 08:19 39.074338 -108.957920 264 17545ft 125kts
20-Mar-18 08:20 39.070136 -109.002414 264 17543ft 125kts
20-Mar-18 08:21 39.065930 -109.046772 265 17539ft 125kts
20-Mar-18 08:22 39.061689 -109.091308 265 17536ft 125kts
20-Mar-18 08:23 39.057418 -109.135993 266 17533ft 126kts
20-Mar-18 08:24 39.053106 -109.180912 266 17529ft 126kts
20-Mar-18 08:25 39.048765 -109.225944 266 17526ft 127kts
20-Mar-18 08:26 39.044415 -109.270882 266 17525ft 127kts
20-Mar-18 08:27 39.040047 -109.315824 266 17525ft 126kts
20-Mar-18 08:28 39.035663 -109.360742 266 17524ft 127kts
20-Mar-18 08:29 39.031251 -109.405769 266 17524ft 127kts
20-Mar-18 08:30 39.026812 -109.450887 266 17523ft 127kts
20-Mar-18 08:31 39.022430 -109.495263 266 17523ft 127kts
20-Mar-18 08:32 39.017987 -109.540056 266 17523ft 127kts
20-Mar-18 08:33 39.013542 -109.584696 266 17522ft 127kts
20-Mar-18 08:34 39.009025 -109.629874 266 17522ft 127kts
20-Mar-18 08:35 39.004945 -109.670540 266 17530ft 128kts
20-Mar-18 08:36 39.000369 -109.716037 265 17530ft 129kts
20-Mar-18 08:37 38.995711 -109.762161 265 17500ft 130kts
20-Mar-18 08:38 38.991028 -109.808225 265 17499ft 130kts
20-Mar-18 08:39 38.986325 -109.854342 265 17499ft 130kts
20-Mar-18 08:40 38.981603 -109.900473 265 17498ft 130kts
20-Mar-18 08:41 38.976872 -109.946498 265 17498ft 130kts
20-Mar-18 08:42 38.972099 -109.992753 265 17498ft 130kts
20-Mar-18 08:43 38.967313 -110.038949 265 17497ft 130kts
20-Mar-18 08:44 38.962500 -110.085222 265 17497ft 130kts
20-Mar-18 08:45 38.957677 -110.131413 265 17496ft 131kts
20-Mar-18 08:46 38.952816 -110.177787 265 17497ft 131kts
20-Mar-18 08:47 38.947933 -110.224172 265 17501ft 131kts
20-Mar-18 08:48 38.943028 -110.270597 265 17506ft 131kts
20-Mar-18 08:49 38.938110 -110.316971 265 17511ft 131kts
20-Mar-18 08:50 38.933170 -110.363359 265 17517ft 131kts
20-Mar-18 08:51 38.928199 -110.409856 265 17523ft 131kts
20-Mar-18 08:52 38.923196 -110.456479 265 17524ft 131kts
20-Mar-18 08:53 38.918181 -110.503046 265 17526ft 132kts
20-Mar-18 08:54 38.913124 -110.549815 264 17527ft 132kts
20-Mar-18 08:55 38.908063 -110.596434 264 17528ft 132kts
20-Mar-18 08:56 38.902967 -110.643200 264 17530ft 132kts
20-Mar-18 08:57 38.897884 -110.689706 264 17538ft 133kts
20-Mar-18 08:58 38.892701 -110.736945 264 17540ft 134kts
20-Mar-18 08:59 38.887486 -110.784263 264 17541ft 134kts
20-Mar-18 09:00 38.882231 -110.831759 264 17543ft 134kts
20-Mar-18 09:01 38.877022 -110.878666 264 17543ft 134kts
20-Mar-18 09:02 38.871656 -110.926794 264 17543ft 135kts
20-Mar-18 09:03 38.865981 -110.978992 264 16781ft 148kts
20-Mar-18 09:04 38.859905 -111.033674 264 15876ft 158kts
20-Mar-18 09:05 38.859012 -111.090231 276 14972ft 160kts
20-Mar-18 09:06 38.862253 -111.146865 275 14322ft 160kts
20-Mar-18 09:07 38.866216 -111.204056 275 13639ft 162kts
20-Mar-18 09:08 38.870500 -111.261852 275 12982ft 163kts
20-Mar-18 09:09 38.874768 -111.319537 275 12278ft 165kts
20-Mar-18 09:10 38.878895 -111.377955 271 11558ft 165kts
20-Mar-18 09:11 38.873137 -111.436196 268 10821ft 165kts
20-Mar-18 09:12 38.869524 -111.494409 264 10203ft 163kts
20-Mar-18 09:13 38.864619 -111.549062 264 10067ft 143kts
20-Mar-18 09:14 38.879906 -111.594515 300 10068ft 141kts
20-Mar-18 09:15 38.897865 -111.638914 274 10051ft 142kts
20-Mar-18 09:16 38.884160 -111.686199 246 10046ft 143kts
20-Mar-18 09:17 38.867555 -111.732634 246 10035ft 143kts
20-Mar-18 09:18 38.850855 -111.779057 246 10023ft 143kts
20-Mar-18 09:19 38.834084 -111.825662 246 10010ft 143kts
20-Mar-18 09:20 38.818363 -111.872454 243 10003ft 143kts
20-Mar-18 09:21 38.801502 -111.918835 246 10005ft 143kts
20-Mar-18 09:22 38.784942 -111.964260 245 9442ft 138kts
20-Mar-18 09:23 38.768448 -112.009004 245 8649ft 139kts
20-Mar-18 09:24 38.755569 -112.052263 258 7284ft 110kts
20-Mar-18 09:25 38.749989 -112.085927 256 5733ft 97kts
20-Mar-18 09:26 38.740934 -112.097250 25 5283ft 0kts
20-Mar-18 09:27 38.740934 -112.097250 25 5283ft 0kts
20-Mar-18 09:28 38.740934 -112.097250 25 5283ft 0kts

Navigation Log

Ident Type
Flight plan parsing failed, navigation log unavailable